createdAt,value
2023-04-02T00:01:01.395Z,81.70
2023-04-02T00:03:53.800Z,81.90
2023-04-02T00:06:32.849Z,82.00
2023-04-02T00:09:17.180Z,82.20
2023-04-02T00:11:48.437Z,82.40
2023-04-02T00:14:23.913Z,82.40
2023-04-02T00:16:55.914Z,82.80
2023-04-02T00:19:30.766Z,82.60
2023-04-02T00:21:58.808Z,82.60
2023-04-02T00:24:25.549Z,82.80
2023-04-02T00:26:53.564Z,83.00
2023-04-02T00:29:20.640Z,83.30
2023-04-02T00:31:50.723Z,82.90
2023-04-02T00:34:22.261Z,82.70
2023-04-02T00:36:50.982Z,83.10
2023-04-02T00:39:24.267Z,83.30
2023-04-02T00:41:54.659Z,83.00
2023-04-02T00:44:22.289Z,83.20
2023-04-02T00:46:50.735Z,83.30
2023-04-02T00:49:36.052Z,83.30
2023-04-02T00:52:16.610Z,83.30
2023-04-02T00:55:01.014Z,83.30
2023-04-02T00:57:28.241Z,83.10
2023-04-02T01:00:20.101Z,82.80
2023-04-02T01:03:19.286Z,82.70
2023-04-02T01:05:55.750Z,82.50
2023-04-02T01:08:34.525Z,82.50
2023-04-02T01:11:39.265Z,82.10
2023-04-02T01:14:18.033Z,81.70
2023-04-02T01:16:53.950Z,81.20
2023-04-02T01:19:54.276Z,81.00
2023-04-02T01:22:36.463Z,80.60
2023-04-02T01:25:04.559Z,80.60
2023-04-02T01:27:40.553Z,80.30
2023-04-02T01:30:09.354Z,80.30
2023-04-02T01:32:36.342Z,80.20
2023-04-02T01:35:03.127Z,80.20
2023-04-02T01:37:53.164Z,80.00
2023-04-02T01:40:31.126Z,79.80
2023-04-02T01:43:32.161Z,79.90
2023-04-02T01:45:59.805Z,79.70
2023-04-02T01:48:30.056Z,79.70
2023-04-02T01:50:59.440Z,79.70
2023-04-02T01:53:30.705Z,79.70
2023-04-02T01:56:00.865Z,79.60
2023-04-02T01:58:31.625Z,79.40
2023-04-02T02:01:08.268Z,79.60
2023-04-02T02:03:37.463Z,79.80
2023-04-02T02:06:06.100Z,79.60
2023-04-02T02:08:47.148Z,79.50
2023-04-02T02:11:17.967Z,79.40
2023-04-02T02:13:55.346Z,79.90
2023-04-02T02:16:22.750Z,80.20
2023-04-02T02:18:52.823Z,80.50
2023-04-02T02:21:38.519Z,80.70
2023-04-02T02:24:16.974Z,81.00
2023-04-02T02:26:46.404Z,81.10
2023-04-02T02:29:18.148Z,81.00
2023-04-02T02:31:47.669Z,81.40
2023-04-02T02:34:29.218Z,81.40
2023-04-02T02:37:07.075Z,81.50
2023-04-02T02:39:47.796Z,81.60
2023-04-02T02:42:28.683Z,81.80
2023-04-02T02:44:57.328Z,81.90
2023-04-02T02:47:28.243Z,82.00
2023-04-02T02:50:04.147Z,82.00
2023-04-02T02:52:35.063Z,82.00
2023-04-02T02:55:11.670Z,81.90
2023-04-02T02:57:51.599Z,82.40
2023-04-02T03:00:19.855Z,82.90
2023-04-02T03:02:48.046Z,82.90
2023-04-02T03:05:20.486Z,82.70
2023-04-02T03:07:52.200Z,82.70
2023-04-02T03:10:38.416Z,82.70
2023-04-02T03:13:29.236Z,82.70
2023-04-02T03:16:20.529Z,82.80
2023-04-02T03:19:02.132Z,83.20
2023-04-02T03:21:48.721Z,83.30
2023-04-02T03:24:23.541Z,83.40
2023-04-02T03:26:58.938Z,83.50
2023-04-02T03:29:30.686Z,83.60
2023-04-02T03:32:06.036Z,83.30
2023-04-02T03:34:46.604Z,83.30
2023-04-02T03:37:39.197Z,83.30
2023-04-02T03:40:20.778Z,83.60
2023-04-02T03:43:12.971Z,83.70
2023-04-02T03:45:43.960Z,83.70
2023-04-02T03:48:24.331Z,83.60
2023-04-02T03:51:02.484Z,83.50
2023-04-02T03:53:32.062Z,84.40
2023-04-02T03:56:01.232Z,84.40
2023-04-02T03:58:42.738Z,84.70
2023-04-02T04:01:09.936Z,84.70
2023-04-02T04:03:48.673Z,84.60
2023-04-02T04:06:27.493Z,84.70
2023-04-02T04:09:18.273Z,84.90
2023-04-02T04:11:48.741Z,85.10
2023-04-02T04:14:31.553Z,85.00
2023-04-02T04:17:16.222Z,85.00
2023-04-02T04:19:46.224Z,84.60
2023-04-02T04:22:30.108Z,85.00
2023-04-02T04:25:05.301Z,84.80
2023-04-02T04:28:16.561Z,85.00
2023-04-02T04:31:00.076Z,85.60
2023-04-02T04:33:39.518Z,85.30
2023-04-02T04:36:28.461Z,85.00
2023-04-02T04:39:08.296Z,84.90
2023-04-02T04:41:39.110Z,85.10
2023-04-02T04:44:23.411Z,85.20
2023-04-02T04:47:03.968Z,85.20
2023-04-02T04:49:54.004Z,85.10
2023-04-02T04:52:34.502Z,85.20
2023-04-02T04:55:01.962Z,85.20
2023-04-02T04:57:35.968Z,85.20
2023-04-02T05:00:22.727Z,84.70
2023-04-02T05:03:13.739Z,84.40
2023-04-02T05:05:41.076Z,84.70
2023-04-02T05:08:22.519Z,84.80
2023-04-02T05:10:50.671Z,84.90
2023-04-02T05:13:25.733Z,85.00
2023-04-02T05:16:16.327Z,85.10
2023-04-02T05:18:57.570Z,85.40
2023-04-02T05:21:43.925Z,85.00
2023-04-02T05:24:38.641Z,84.90
2023-04-02T05:27:19.882Z,84.80
2023-04-02T05:29:53.729Z,84.80
2023-04-02T05:32:31.159Z,85.00
2023-04-02T05:34:59.815Z,85.30
2023-04-02T05:37:29.804Z,85.30
2023-04-02T05:40:01.006Z,85.10
2023-04-02T05:42:31.595Z,84.80
2023-04-02T05:45:31.270Z,84.80
2023-04-02T05:48:05.903Z,84.50
2023-04-02T05:50:43.762Z,84.40
2023-04-02T05:53:40.036Z,84.40
2023-04-02T05:56:26.183Z,84.20
2023-04-02T05:58:57.911Z,83.90
2023-04-02T06:01:49.619Z,83.80
2023-04-02T06:04:42.020Z,83.20
2023-04-02T06:07:23.048Z,83.40
2023-04-02T06:10:16.816Z,83.30
2023-04-02T06:12:49.687Z,83.40
2023-04-02T06:15:22.143Z,83.10
2023-04-02T06:17:59.302Z,83.20
2023-04-02T06:20:27.387Z,83.30
2023-04-02T06:23:04.663Z,82.90
2023-04-02T06:25:37.996Z,82.50
2023-04-02T06:28:15.414Z,82.40
2023-04-02T06:30:51.678Z,82.30
2023-04-02T06:33:19.250Z,81.90
2023-04-02T06:35:50.939Z,81.60
2023-04-02T06:38:29.822Z,81.10
2023-04-02T06:41:21.924Z,80.30
2023-04-02T06:44:33.938Z,79.70
2023-04-02T06:47:42.318Z,79.40
2023-04-02T06:50:16.600Z,78.70
2023-04-02T06:52:48.961Z,78.70
2023-04-02T06:55:37.388Z,77.20
2023-04-02T06:58:04.348Z,77.10
2023-04-02T07:00:37.341Z,76.80
2023-04-02T07:03:08.878Z,77.10
2023-04-02T07:05:35.887Z,76.60
2023-04-02T07:08:02.813Z,76.80
2023-04-02T07:10:29.621Z,75.90
2023-04-02T07:12:56.292Z,76.00
2023-04-02T07:15:25.353Z,75.80
2023-04-02T07:17:54.778Z,75.90
2023-04-02T07:20:27.147Z,74.60
2023-04-02T07:22:54.993Z,75.60
2023-04-02T07:25:21.853Z,75.50
2023-04-02T07:27:48.704Z,75.30
2023-04-02T07:30:15.791Z,74.00
2023-04-02T07:32:42.947Z,72.90
2023-04-02T07:35:11.045Z,72.90
2023-04-02T07:37:38.721Z,72.00
2023-04-02T07:40:18.300Z,72.10
2023-04-02T07:42:45.341Z,71.30
2023-04-02T07:45:12.680Z,71.60
2023-04-02T07:47:39.472Z,70.50
2023-04-02T07:50:08.143Z,72.30
2023-04-02T07:52:44.919Z,71.20
2023-04-02T07:55:12.849Z,71.80
2023-04-02T07:57:52.612Z,69.50
2023-04-02T08:00:20.647Z,70.30
2023-04-02T08:02:47.845Z,70.50
2023-04-02T08:05:14.620Z,70.40
2023-04-02T08:07:42.301Z,70.60
2023-04-02T08:10:11.705Z,70.80
2023-04-02T08:12:38.792Z,71.30
2023-04-02T08:15:06.945Z,72.20
2023-04-02T08:17:33.710Z,72.30
2023-04-02T08:20:01.723Z,71.00
2023-04-02T08:22:29.152Z,69.80
2023-04-02T08:24:56.391Z,70.70
2023-04-02T08:27:26.477Z,71.50
2023-04-02T08:29:53.145Z,69.90
2023-04-02T08:32:19.885Z,70.00
2023-04-02T08:34:46.555Z,69.40
2023-04-02T08:37:13.541Z,69.30
2023-04-02T08:39:40.482Z,70.70
2023-04-02T08:42:37.619Z,70.50
2023-04-02T08:45:23.648Z,70.90
2023-04-02T08:47:55.262Z,72.00
2023-04-02T08:50:42.458Z,69.70
2023-04-02T08:53:21.107Z,70.80
2023-04-02T08:56:17.708Z,70.00
2023-04-02T08:58:49.913Z,70.00
2023-04-02T09:01:35.722Z,70.00
2023-04-02T09:04:12.506Z,69.90
2023-04-02T09:06:39.204Z,70.10
2023-04-02T09:09:06.697Z,70.40
2023-04-02T09:11:51.801Z,69.90
2023-04-02T09:14:29.503Z,69.80
2023-04-02T09:17:01.624Z,69.00
2023-04-02T09:19:38.384Z,68.60
2023-04-02T09:22:19.711Z,70.60
2023-04-02T09:24:55.346Z,70.10
2023-04-02T09:27:24.982Z,69.40
2023-04-02T09:30:00.763Z,69.70
2023-04-02T09:32:33.495Z,68.80
2023-04-02T09:35:30.573Z,69.20
2023-04-02T09:38:22.449Z,69.00
2023-04-02T09:40:53.877Z,68.20
2023-04-02T09:43:21.794Z,68.00
2023-04-02T09:46:15.401Z,70.00
2023-04-02T09:48:53.045Z,66.70
2023-04-02T09:51:21.706Z,65.60
2023-04-02T09:54:12.978Z,65.00
2023-04-02T09:56:41.057Z,66.00
2023-04-02T09:59:13.701Z,64.80
2023-04-02T10:01:43.760Z,62.70
2023-04-02T10:04:30.921Z,62.20
2023-04-02T10:06:59.033Z,63.70
2023-04-02T10:09:35.259Z,64.10
2023-04-02T10:12:04.964Z,63.10
2023-04-02T10:14:39.088Z,65.80
2023-04-02T10:17:23.327Z,64.20
2023-04-02T10:20:20.975Z,63.50
2023-04-02T10:22:47.996Z,63.40
2023-04-02T10:25:21.161Z,62.60
2023-04-02T10:27:55.850Z,64.00
2023-04-02T10:30:39.020Z,64.10
2023-04-02T10:33:15.316Z,63.60
2023-04-02T10:35:52.399Z,63.90
2023-04-02T10:38:32.654Z,61.60
2023-04-02T10:41:33.456Z,64.10
2023-04-02T10:44:33.900Z,62.90
2023-04-02T10:47:23.457Z,62.90
2023-04-02T10:50:13.374Z,62.50
2023-04-02T10:52:48.531Z,63.40
2023-04-02T10:55:20.021Z,62.60
2023-04-02T10:57:47.627Z,63.50
2023-04-02T11:00:22.717Z,63.50
2023-04-02T11:03:18.566Z,63.70
2023-04-02T11:05:51.227Z,63.10
2023-04-02T11:08:39.500Z,63.00
2023-04-02T11:11:18.416Z,61.70
2023-04-02T11:13:52.504Z,59.60
2023-04-02T11:16:19.629Z,60.20
2023-04-02T11:19:14.292Z,60.10
2023-04-02T11:22:01.331Z,63.70
2023-04-02T11:24:36.878Z,64.00
2023-04-02T11:27:16.380Z,63.20
2023-04-02T11:29:46.097Z,64.90
2023-04-02T11:32:21.838Z,64.90
2023-04-02T11:34:56.293Z,66.20
2023-04-02T11:37:43.224Z,65.30
2023-04-02T11:40:13.936Z,66.00
2023-04-02T11:42:46.071Z,65.00
2023-04-02T11:45:26.170Z,64.30
2023-04-02T11:48:02.571Z,64.30
2023-04-02T11:50:31.274Z,62.80
2023-04-02T11:53:16.946Z,63.70
2023-04-02T11:55:45.893Z,62.70
2023-04-02T11:58:34.481Z,59.70
2023-04-02T12:01:31.101Z,61.20
2023-04-02T12:04:24.136Z,60.70
2023-04-02T12:07:11.362Z,59.10
2023-04-02T12:09:59.341Z,61.50
2023-04-02T12:12:31.971Z,57.70
2023-04-02T12:14:59.772Z,58.70
2023-04-02T12:17:31.523Z,57.40
2023-04-02T12:20:09.389Z,56.30
2023-04-02T12:22:47.106Z,56.50
2023-04-02T12:25:32.358Z,58.20
2023-04-02T12:28:11.309Z,58.80
2023-04-02T12:30:39.058Z,57.10
2023-04-02T12:33:19.370Z,57.60
2023-04-02T12:35:47.875Z,59.20
2023-04-02T12:38:35.025Z,57.00
2023-04-02T12:41:04.055Z,60.60
2023-04-02T12:43:37.644Z,58.40
2023-04-02T12:46:06.521Z,58.30
2023-04-02T12:48:35.072Z,59.40
2023-04-02T12:51:04.040Z,61.20
2023-04-02T12:53:40.052Z,62.30
2023-04-02T12:56:10.615Z,62.10
2023-04-02T12:58:40.618Z,61.90
2023-04-02T13:01:12.850Z,59.80
2023-04-02T13:03:39.625Z,60.70
2023-04-02T13:06:22.980Z,59.10
2023-04-02T13:08:50.388Z,58.60
2023-04-02T13:11:17.380Z,58.60
2023-04-02T13:13:46.370Z,59.70
2023-04-02T13:16:19.229Z,58.30
2023-04-02T13:18:48.036Z,57.20
2023-04-02T13:21:14.654Z,54.60
2023-04-02T13:23:41.369Z,52.90
2023-04-02T13:26:14.205Z,52.50
2023-04-02T13:28:40.992Z,53.80
2023-04-02T13:31:15.093Z,53.70
2023-04-02T13:33:41.799Z,51.70
2023-04-02T13:36:14.165Z,54.30
2023-04-02T13:38:41.766Z,53.90
2023-04-02T13:41:20.810Z,53.30
2023-04-02T13:43:47.521Z,52.10
2023-04-02T13:46:26.316Z,51.40
2023-04-02T13:48:55.254Z,51.80
2023-04-02T13:51:27.065Z,49.90
2023-04-02T13:53:56.913Z,50.10
2023-04-02T13:56:24.465Z,50.30
2023-04-02T13:58:54.240Z,49.60
2023-04-02T14:01:24.532Z,50.40
2023-04-02T14:03:52.338Z,48.90
2023-04-02T14:06:36.783Z,51.50
2023-04-02T14:09:35.914Z,51.20
2023-04-02T14:12:17.706Z,53.50
2023-04-02T14:15:11.029Z,50.80
2023-04-02T14:17:57.987Z,50.20
2023-04-02T14:20:41.302Z,50.50
2023-04-02T14:23:30.343Z,51.30
2023-04-02T14:25:59.881Z,51.00
2023-04-02T14:29:11.953Z,51.70
2023-04-02T14:31:50.279Z,52.10
2023-04-02T14:34:45.265Z,51.70
2023-04-02T14:37:29.788Z,51.50
2023-04-02T14:40:25.522Z,51.10
2023-04-02T14:43:16.344Z,51.60
2023-04-02T14:45:51.779Z,51.80
2023-04-02T14:48:54.350Z,52.30
2023-04-02T14:51:27.294Z,52.50
2023-04-02T14:54:34.498Z,51.80
2023-04-02T14:57:12.486Z,52.40
2023-04-02T14:59:57.800Z,53.00
2023-04-02T15:02:39.458Z,55.50
2023-04-02T15:05:17.620Z,56.20
2023-04-02T15:07:53.493Z,57.20
2023-04-02T15:10:44.306Z,57.60
2023-04-02T15:13:21.225Z,60.10
2023-04-02T15:16:16.412Z,61.80
2023-04-02T15:18:43.178Z,63.80
2023-04-02T15:21:09.856Z,63.60
2023-04-02T15:24:13.781Z,64.20
2023-04-02T15:27:00.831Z,65.80
2023-04-02T15:29:36.319Z,66.80
2023-04-02T15:32:34.217Z,67.50
2023-04-02T15:35:24.502Z,69.30
2023-04-02T15:37:59.747Z,68.30
2023-04-02T15:40:29.572Z,68.60
2023-04-02T15:43:21.896Z,69.00
2023-04-02T15:46:00.657Z,69.10
2023-04-02T15:48:58.866Z,67.90
2023-04-02T15:51:43.550Z,68.10
2023-04-02T15:54:28.842Z,68.10
2023-04-02T15:57:04.373Z,69.20
2023-04-02T15:59:40.769Z,69.00
2023-04-02T16:02:22.183Z,69.50
2023-04-02T16:05:03.646Z,69.60
2023-04-02T16:07:51.297Z,71.30
2023-04-02T16:10:41.145Z,71.00
2023-04-02T16:13:33.943Z,70.90
2023-04-02T16:16:22.529Z,71.50
2023-04-02T16:19:16.071Z,71.70
2023-04-02T16:22:04.173Z,72.90
2023-04-02T16:24:30.831Z,75.20
2023-04-02T16:27:00.667Z,75.10
2023-04-02T16:29:55.066Z,75.60
2023-04-02T16:32:35.818Z,75.70
2023-04-02T16:35:43.945Z,76.50
2023-04-02T16:38:32.150Z,78.10
2023-04-02T16:41:15.993Z,78.00
2023-04-02T16:43:49.647Z,78.20
2023-04-02T16:46:51.667Z,79.50
2023-04-02T16:49:55.797Z,78.50
2023-04-02T16:52:22.456Z,78.70
2023-04-02T16:55:29.724Z,79.60
2023-04-02T16:58:02.683Z,79.00
2023-04-02T17:00:40.707Z,78.80
2023-04-02T17:03:28.287Z,78.80
2023-04-02T17:06:31.838Z,77.80
2023-04-02T17:09:17.921Z,78.30
2023-04-02T17:11:54.201Z,77.80
2023-04-02T17:14:34.184Z,77.90
2023-04-02T17:17:05.369Z,78.00
2023-04-02T17:19:32.987Z,78.30
2023-04-02T17:22:03.050Z,79.10
2023-04-02T17:24:44.238Z,79.60
2023-04-02T17:27:32.490Z,79.10
2023-04-02T17:30:07.633Z,78.10
2023-04-02T17:32:34.638Z,78.10
2023-04-02T17:35:18.740Z,77.80
2023-04-02T17:38:21.110Z,77.90
2023-04-02T17:40:58.331Z,77.50
2023-04-02T17:43:27.715Z,77.70
2023-04-02T17:46:18.968Z,78.10
2023-04-02T17:48:48.722Z,78.90
2023-04-02T17:52:00.610Z,79.60
2023-04-02T17:54:27.708Z,79.50
2023-04-02T17:57:26.929Z,79.50
2023-04-02T18:00:23.953Z,79.90
2023-04-02T18:02:59.988Z,80.60
2023-04-02T18:05:44.563Z,80.70
2023-04-02T18:08:29.485Z,80.10
2023-04-02T18:11:13.085Z,79.80
2023-04-02T18:14:17.734Z,80.60
2023-04-02T18:16:57.904Z,80.60
2023-04-02T18:20:08.729Z,80.90
2023-04-02T18:23:12.285Z,81.30
2023-04-02T18:25:46.735Z,81.70
2023-04-02T18:28:28.169Z,82.00
2023-04-02T18:31:04.249Z,82.30
2023-04-02T18:33:35.616Z,82.50
2023-04-02T18:36:50.888Z,83.20
2023-04-02T18:39:44.819Z,83.40
2023-04-02T18:42:31.488Z,83.60
2023-04-02T18:45:21.625Z,83.60
2023-04-02T18:48:04.045Z,83.50
2023-04-02T18:50:35.050Z,83.50
2023-04-02T18:53:21.347Z,83.70
2023-04-02T18:55:52.983Z,84.00
2023-04-02T18:58:33.962Z,83.90
2023-04-02T19:01:03.591Z,84.00
2023-04-02T19:03:39.504Z,84.30
2023-04-02T19:06:12.430Z,84.50
2023-04-02T19:08:48.444Z,84.30
2023-04-02T19:11:28.398Z,84.40
2023-04-02T19:14:10.885Z,84.40
2023-04-02T19:17:07.358Z,84.00
2023-04-02T19:19:45.983Z,84.60
2023-04-02T19:22:37.366Z,84.30
2023-04-02T19:25:51.167Z,84.10
2023-04-02T19:28:33.836Z,84.20
2023-04-02T19:31:28.169Z,84.50
2023-04-02T19:34:16.838Z,84.40
2023-04-02T19:36:56.021Z,85.00
2023-04-02T19:39:55.397Z,85.60
2023-04-02T19:42:46.145Z,85.90
2023-04-02T19:45:40.328Z,85.70
2023-04-02T19:48:27.448Z,85.50
2023-04-02T19:50:54.155Z,85.40
2023-04-02T19:53:20.870Z,85.10
2023-04-02T19:55:47.719Z,85.20
2023-04-02T19:58:27.348Z,85.00
2023-04-02T20:00:54.446Z,85.00
2023-04-02T20:03:21.193Z,84.90
2023-04-02T20:05:48.200Z,85.00
2023-04-02T20:08:14.994Z,85.40
2023-04-02T20:10:42.238Z,85.10
2023-04-02T20:13:09.326Z,84.30
2023-04-02T20:15:36.742Z,84.20
2023-04-02T20:18:04.524Z,84.10
2023-04-02T20:20:31.268Z,84.10
2023-04-02T20:22:57.949Z,84.40
2023-04-02T20:25:24.659Z,84.60
2023-04-02T20:27:51.518Z,84.60
2023-04-02T20:30:18.235Z,84.50
2023-04-02T20:32:45.100Z,84.90
2023-04-02T20:35:12.237Z,85.40
2023-04-02T20:37:40.887Z,85.20
2023-04-02T20:40:08.547Z,84.70
2023-04-02T20:42:35.334Z,85.00
2023-04-02T20:45:02.232Z,84.60
2023-04-02T20:47:28.908Z,83.90
2023-04-02T20:49:55.607Z,83.50
2023-04-02T20:52:23.139Z,83.90
2023-04-02T20:54:50.480Z,84.20
2023-04-02T20:57:18.348Z,84.40
2023-04-02T20:59:45.085Z,84.40
2023-04-02T21:02:12.008Z,84.20
2023-04-02T21:04:38.775Z,84.50
2023-04-02T21:07:05.730Z,84.80
2023-04-02T21:09:32.528Z,84.50
2023-04-02T21:11:59.183Z,84.30
2023-04-02T21:14:26.403Z,84.40
2023-04-02T21:16:53.168Z,85.20
2023-04-02T21:19:19.836Z,85.20
2023-04-02T21:21:46.815Z,84.90
2023-04-02T21:24:14.122Z,85.10
2023-04-02T21:26:41.688Z,85.10
2023-04-02T21:29:08.702Z,85.20
2023-04-02T21:31:39.753Z,84.50
2023-04-02T21:34:09.165Z,84.50
2023-04-02T21:36:39.290Z,84.90
2023-04-02T21:39:11.809Z,85.50
2023-04-02T21:41:39.677Z,85.80
2023-04-02T21:44:09.027Z,85.40
2023-04-02T21:46:38.595Z,85.20
2023-04-02T21:49:08.138Z,85.30
2023-04-02T21:51:37.032Z,85.90
2023-04-02T21:54:04.098Z,86.60
2023-04-02T21:56:32.884Z,86.70
2023-04-02T21:59:01.861Z,86.70
2023-04-02T22:01:31.426Z,86.30
2023-04-02T22:04:00.387Z,86.40
2023-04-02T22:06:29.478Z,86.30
2023-04-02T22:09:01.785Z,85.90
2023-04-02T22:11:34.321Z,85.70
2023-04-02T22:14:03.263Z,85.60
2023-04-02T22:16:32.567Z,85.00
2023-04-02T22:19:01.499Z,84.50
2023-04-02T22:21:29.852Z,83.50
2023-04-02T22:23:58.976Z,82.80
2023-04-02T22:26:25.678Z,82.60
2023-04-02T22:28:52.764Z,82.70
2023-04-02T22:31:22.484Z,82.50
2023-04-02T22:33:50.364Z,82.90
2023-04-02T22:36:18.024Z,82.90
2023-04-02T22:38:44.854Z,83.80
2023-04-02T22:41:16.415Z,83.60
2023-04-02T22:43:44.465Z,82.80
2023-04-02T22:46:13.898Z,80.80
2023-04-02T22:48:41.231Z,81.40
2023-04-02T22:51:09.445Z,81.10
2023-04-02T22:53:36.903Z,81.30
2023-04-02T22:56:19.035Z,81.00
2023-04-02T22:58:46.208Z,80.90
2023-04-02T23:01:25.677Z,80.00
2023-04-02T23:03:56.277Z,80.10
2023-04-02T23:06:24.431Z,80.60
2023-04-02T23:08:52.056Z,80.20
2023-04-02T23:11:23.531Z,80.20
2023-04-02T23:13:52.367Z,79.40
2023-04-02T23:16:19.730Z,79.90
2023-04-02T23:18:48.044Z,79.80
2023-04-02T23:21:16.331Z,79.50
2023-04-02T23:23:43.463Z,79.40
2023-04-02T23:26:13.724Z,79.20
2023-04-02T23:28:41.050Z,79.40
2023-04-02T23:31:11.808Z,78.90
2023-04-02T23:33:38.523Z,78.90
2023-04-02T23:36:28.026Z,79.10
2023-04-02T23:38:57.045Z,79.60
2023-04-02T23:41:26.708Z,79.40
2023-04-02T23:43:54.262Z,79.60
2023-04-02T23:46:23.094Z,80.10
2023-04-02T23:48:50.803Z,80.20
2023-04-02T23:51:18.207Z,79.90
2023-04-02T23:53:45.119Z,79.30
2023-04-02T23:56:12.150Z,79.40
2023-04-02T23:58:38.938Z,79.10
